sensor_id;sensor_type;location;lat;lon;timestamp;P1;durP1;ratioP1;P2;durP2;ratioP2
69081;SDS011;68928;51.986;5.760;2023-04-01T00:00:56;6.03;;;2.38;;
69081;SDS011;68928;51.986;5.760;2023-04-01T00:03:23;5.72;;;2.28;;
69081;SDS011;68928;51.986;5.760;2023-04-01T00:05:50;7.50;;;2.47;;
69081;SDS011;68928;51.986;5.760;2023-04-01T00:08:16;2.42;;;1.70;;
69081;SDS011;68928;51.986;5.760;2023-04-01T00:10:42;5.53;;;2.10;;
69081;SDS011;68928;51.986;5.760;2023-04-01T00:13:08;4.00;;;1.90;;
69081;SDS011;68928;51.986;5.760;2023-04-01T00:15:34;7.40;;;2.30;;
69081;SDS011;68928;51.986;5.760;2023-04-01T00:17:59;5.97;;;2.25;;
69081;SDS011;68928;51.986;5.760;2023-04-01T00:20:27;6.70;;;2.70;;
69081;SDS011;68928;51.986;5.760;2023-04-01T00:22:54;4.90;;;2.83;;
69081;SDS011;68928;51.986;5.760;2023-04-01T00:25:21;5.57;;;2.67;;
69081;SDS011;68928;51.986;5.760;2023-04-01T00:27:47;5.70;;;2.78;;
69081;SDS011;68928;51.986;5.760;2023-04-01T00:30:12;7.30;;;3.10;;
69081;SDS011;68928;51.986;5.760;2023-04-01T00:32:38;6.35;;;3.00;;
69081;SDS011;68928;51.986;5.760;2023-04-01T00:35:04;6.22;;;3.40;;
69081;SDS011;68928;51.986;5.760;2023-04-01T00:37:30;7.35;;;3.85;;
69081;SDS011;68928;51.986;5.760;2023-04-01T00:39:55;8.05;;;4.05;;
69081;SDS011;68928;51.986;5.760;2023-04-01T00:42:21;5.60;;;3.90;;
69081;SDS011;68928;51.986;5.760;2023-04-01T00:44:50;8.13;;;4.38;;
69081;SDS011;68928;51.986;5.760;2023-04-01T00:47:17;9.77;;;5.63;;
69081;SDS011;68928;51.986;5.760;2023-04-01T00:49:45;9.07;;;5.80;;
69081;SDS011;68928;51.986;5.760;2023-04-01T00:52:15;10.00;;;6.03;;
69081;SDS011;68928;51.986;5.760;2023-04-01T00:54:44;9.80;;;5.68;;
69081;SDS011;68928;51.986;5.760;2023-04-01T00:57:18;12.15;;;6.18;;
69081;SDS011;68928;51.986;5.760;2023-04-01T01:00:06;14.85;;;7.18;;
69081;SDS011;68928;51.986;5.760;2023-04-01T01:02:36;15.27;;;8.38;;
69081;SDS011;68928;51.986;5.760;2023-04-01T01:05:02;14.20;;;7.97;;
69081;SDS011;68928;51.986;5.760;2023-04-01T01:15:49;16.95;;;8.13;;
69081;SDS011;68928;51.986;5.760;2023-04-01T01:29:40;13.88;;;6.55;;
69081;SDS011;68928;51.986;5.760;2023-04-01T01:37:54;16.80;;;6.68;;
69081;SDS011;68928;51.986;5.760;2023-04-01T01:40:24;15.23;;;6.50;;
69081;SDS011;68928;51.986;5.760;2023-04-01T01:42:52;13.73;;;5.00;;
69081;SDS011;68928;51.986;5.760;2023-04-01T01:45:23;18.33;;;5.13;;
69081;SDS011;68928;51.986;5.760;2023-04-01T01:47:51;17.25;;;5.18;;
69081;SDS011;68928;51.986;5.760;2023-04-01T01:50:17;16.77;;;5.28;;
69081;SDS011;68928;51.986;5.760;2023-04-01T01:52:44;17.75;;;5.32;;
69081;SDS011;68928;51.986;5.760;2023-04-01T01:55:26;17.40;;;5.65;;
69081;SDS011;68928;51.986;5.760;2023-04-01T01:58:18;18.90;;;6.22;;
69081;SDS011;68928;51.986;5.760;2023-04-01T02:00:53;20.35;;;6.57;;
69081;SDS011;68928;51.986;5.760;2023-04-01T02:03:22;22.10;;;5.72;;
69081;SDS011;68928;51.986;5.760;2023-04-01T02:05:50;19.38;;;5.90;;
69081;SDS011;68928;51.986;5.760;2023-04-01T02:08:22;17.23;;;5.70;;
69081;SDS011;68928;51.986;5.760;2023-04-01T02:11:09;20.83;;;6.35;;
69081;SDS011;68928;51.986;5.760;2023-04-01T02:13:38;18.08;;;5.93;;
69081;SDS011;68928;51.986;5.760;2023-04-01T02:19:09;24.70;;;6.55;;
69081;SDS011;68928;51.986;5.760;2023-04-01T02:21:37;19.23;;;5.88;;
69081;SDS011;68928;51.986;5.760;2023-04-01T02:24:06;20.58;;;5.45;;
69081;SDS011;68928;51.986;5.760;2023-04-01T02:26:35;21.33;;;6.07;;
69081;SDS011;68928;51.986;5.760;2023-04-01T02:29:01;20.70;;;6.25;;
69081;SDS011;68928;51.986;5.760;2023-04-01T02:31:28;27.50;;;7.40;;
69081;SDS011;68928;51.986;5.760;2023-04-01T02:33:55;23.70;;;6.90;;
69081;SDS011;68928;51.986;5.760;2023-04-01T02:36:22;21.52;;;6.28;;
69081;SDS011;68928;51.986;5.760;2023-04-01T02:38:48;23.20;;;5.40;;
69081;SDS011;68928;51.986;5.760;2023-04-01T02:41:16;19.50;;;5.55;;
69081;SDS011;68928;51.986;5.760;2023-04-01T02:43:41;24.08;;;6.47;;
69081;SDS011;68928;51.986;5.760;2023-04-01T02:46:07;15.18;;;5.40;;
69081;SDS011;68928;51.986;5.760;2023-04-01T02:48:33;14.13;;;5.07;;
69081;SDS011;68928;51.986;5.760;2023-04-01T02:50:59;16.95;;;4.80;;
69081;SDS011;68928;51.986;5.760;2023-04-01T02:53:28;15.27;;;4.57;;
69081;SDS011;68928;51.986;5.760;2023-04-01T02:55:54;11.25;;;5.00;;
69081;SDS011;68928;51.986;5.760;2023-04-01T02:58:20;13.45;;;4.78;;
69081;SDS011;68928;51.986;5.760;2023-04-01T03:00:46;8.48;;;4.28;;
69081;SDS011;68928;51.986;5.760;2023-04-01T03:03:12;7.80;;;4.10;;
69081;SDS011;68928;51.986;5.760;2023-04-01T03:05:38;10.88;;;4.75;;
69081;SDS011;68928;51.986;5.760;2023-04-01T03:08:04;11.35;;;4.65;;
69081;SDS011;68928;51.986;5.760;2023-04-01T03:10:31;11.15;;;4.63;;
69081;SDS011;68928;51.986;5.760;2023-04-01T03:12:57;11.95;;;5.05;;
69081;SDS011;68928;51.986;5.760;2023-04-01T03:15:22;16.30;;;5.03;;
69081;SDS011;68928;51.986;5.760;2023-04-01T03:17:49;12.20;;;4.30;;
69081;SDS011;68928;51.986;5.760;2023-04-01T03:20:16;13.10;;;5.10;;
69081;SDS011;68928;51.986;5.760;2023-04-01T03:22:42;10.45;;;4.78;;
69081;SDS011;68928;51.986;5.760;2023-04-01T03:25:07;10.63;;;4.35;;
69081;SDS011;68928;51.986;5.760;2023-04-01T03:27:34;11.57;;;4.45;;
69081;SDS011;68928;51.986;5.760;2023-04-01T03:30:01;11.00;;;4.63;;
69081;SDS011;68928;51.986;5.760;2023-04-01T03:32:31;8.68;;;3.90;;
69081;SDS011;68928;51.986;5.760;2023-04-01T03:34:57;8.77;;;4.20;;
69081;SDS011;68928;51.986;5.760;2023-04-01T03:37:23;9.52;;;3.90;;
69081;SDS011;68928;51.986;5.760;2023-04-01T03:39:49;11.00;;;4.13;;
69081;SDS011;68928;51.986;5.760;2023-04-01T03:42:14;10.55;;;4.10;;
69081;SDS011;68928;51.986;5.760;2023-04-01T03:44:40;10.15;;;4.32;;
69081;SDS011;68928;51.986;5.760;2023-04-01T03:47:05;8.52;;;4.57;;
69081;SDS011;68928;51.986;5.760;2023-04-01T03:49:32;12.13;;;4.80;;
69081;SDS011;68928;51.986;5.760;2023-04-01T03:51:58;12.55;;;5.07;;
69081;SDS011;68928;51.986;5.760;2023-04-01T03:54:23;10.52;;;4.88;;
69081;SDS011;68928;51.986;5.760;2023-04-01T03:56:49;11.18;;;4.22;;
69081;SDS011;68928;51.986;5.760;2023-04-01T03:59:15;14.18;;;5.15;;
69081;SDS011;68928;51.986;5.760;2023-04-01T04:01:41;10.07;;;5.07;;
69081;SDS011;68928;51.986;5.760;2023-04-01T04:04:06;12.63;;;4.85;;
69081;SDS011;68928;51.986;5.760;2023-04-01T04:06:32;14.50;;;4.95;;
69081;SDS011;68928;51.986;5.760;2023-04-01T04:08:58;9.05;;;5.15;;
69081;SDS011;68928;51.986;5.760;2023-04-01T04:11:24;12.57;;;5.68;;
69081;SDS011;68928;51.986;5.760;2023-04-01T04:13:50;14.40;;;5.13;;
69081;SDS011;68928;51.986;5.760;2023-04-01T04:16:17;15.68;;;5.60;;
69081;SDS011;68928;51.986;5.760;2023-04-01T04:18:43;12.38;;;5.43;;
69081;SDS011;68928;51.986;5.760;2023-04-01T04:21:11;12.23;;;5.75;;
69081;SDS011;68928;51.986;5.760;2023-04-01T04:23:38;10.60;;;5.05;;
69081;SDS011;68928;51.986;5.760;2023-04-01T04:26:07;10.02;;;5.10;;
69081;SDS011;68928;51.986;5.760;2023-04-01T04:28:35;13.63;;;5.45;;
69081;SDS011;68928;51.986;5.760;2023-04-01T04:31:01;8.32;;;5.13;;
69081;SDS011;68928;51.986;5.760;2023-04-01T04:33:29;9.57;;;5.78;;
69081;SDS011;68928;51.986;5.760;2023-04-01T04:35:56;9.93;;;5.38;;
69081;SDS011;68928;51.986;5.760;2023-04-01T04:38:22;8.40;;;5.60;;
69081;SDS011;68928;51.986;5.760;2023-04-01T04:40:48;11.20;;;5.82;;
69081;SDS011;68928;51.986;5.760;2023-04-01T04:43:14;11.35;;;6.13;;
69081;SDS011;68928;51.986;5.760;2023-04-01T04:45:41;11.73;;;6.70;;
69081;SDS011;68928;51.986;5.760;2023-04-01T04:48:10;9.77;;;6.68;;
69081;SDS011;68928;51.986;5.760;2023-04-01T04:50:41;9.25;;;6.63;;
69081;SDS011;68928;51.986;5.760;2023-04-01T04:53:09;12.18;;;6.75;;
69081;SDS011;68928;51.986;5.760;2023-04-01T04:55:35;15.07;;;7.22;;
69081;SDS011;68928;51.986;5.760;2023-04-01T04:58:01;10.38;;;6.85;;
69081;SDS011;68928;51.986;5.760;2023-04-01T05:00:27;11.68;;;7.43;;
69081;SDS011;68928;51.986;5.760;2023-04-01T05:02:55;10.52;;;6.53;;
69081;SDS011;68928;51.986;5.760;2023-04-01T05:05:21;18.13;;;7.22;;
69081;SDS011;68928;51.986;5.760;2023-04-01T05:07:48;13.90;;;6.80;;
69081;SDS011;68928;51.986;5.760;2023-04-01T05:10:15;13.30;;;6.50;;
69081;SDS011;68928;51.986;5.760;2023-04-01T05:12:40;11.25;;;6.53;;
69081;SDS011;68928;51.986;5.760;2023-04-01T05:15:06;8.25;;;5.43;;
69081;SDS011;68928;51.986;5.760;2023-04-01T05:17:33;15.07;;;6.45;;
69081;SDS011;68928;51.986;5.760;2023-04-01T05:19:58;12.25;;;6.55;;
69081;SDS011;68928;51.986;5.760;2023-04-01T05:22:25;11.43;;;6.28;;
69081;SDS011;68928;51.986;5.760;2023-04-01T05:24:54;9.73;;;6.15;;
69081;SDS011;68928;51.986;5.760;2023-04-01T05:27:21;12.00;;;6.38;;
69081;SDS011;68928;51.986;5.760;2023-04-01T05:29:47;9.98;;;5.60;;
69081;SDS011;68928;51.986;5.760;2023-04-01T05:32:13;16.63;;;6.10;;
69081;SDS011;68928;51.986;5.760;2023-04-01T05:34:38;8.00;;;5.63;;
69081;SDS011;68928;51.986;5.760;2023-04-01T05:37:04;27.48;;;7.22;;
69081;SDS011;68928;51.986;5.760;2023-04-01T05:39:32;20.65;;;6.38;;
69081;SDS011;68928;51.986;5.760;2023-04-01T05:42:02;23.92;;;12.25;;
69081;SDS011;68928;51.986;5.760;2023-04-01T05:44:28;19.80;;;6.55;;
69081;SDS011;68928;51.986;5.760;2023-04-01T05:46:53;14.32;;;6.90;;
69081;SDS011;68928;51.986;5.760;2023-04-01T05:49:19;24.25;;;10.35;;
69081;SDS011;68928;51.986;5.760;2023-04-01T05:51:45;10.30;;;6.57;;
69081;SDS011;68928;51.986;5.760;2023-04-01T05:54:10;17.67;;;8.05;;
69081;SDS011;68928;51.986;5.760;2023-04-01T05:56:36;10.90;;;6.75;;
69081;SDS011;68928;51.986;5.760;2023-04-01T05:59:01;10.25;;;6.25;;
69081;SDS011;68928;51.986;5.760;2023-04-01T06:01:52;10.02;;;5.32;;
69081;SDS011;68928;51.986;5.760;2023-04-01T06:04:46;18.73;;;5.97;;
69081;SDS011;68928;51.986;5.760;2023-04-01T06:07:12;10.60;;;6.00;;
69081;SDS011;68928;51.986;5.760;2023-04-01T06:09:40;9.88;;;6.75;;
69081;SDS011;68928;51.986;5.760;2023-04-01T06:20:24;26.83;;;10.20;;
69081;SDS011;68928;51.986;5.760;2023-04-01T06:28:52;11.63;;;5.40;;
69081;SDS011;68928;51.986;5.760;2023-04-01T06:31:31;8.20;;;5.00;;
69081;SDS011;68928;51.986;5.760;2023-04-01T06:36:56;10.05;;;5.05;;
69081;SDS011;68928;51.986;5.760;2023-04-01T06:44:49;4.97;;;3.70;;
69081;SDS011;68928;51.986;5.760;2023-04-01T06:52:50;3.60;;;3.17;;
69081;SDS011;68928;51.986;5.760;2023-04-01T06:55:50;2.97;;;2.50;;
69081;SDS011;68928;51.986;5.760;2023-04-01T07:00:53;4.35;;;3.50;;
69081;SDS011;68928;51.986;5.760;2023-04-01T07:03:26;3.05;;;2.75;;
69081;SDS011;68928;51.986;5.760;2023-04-01T07:05:58;2.88;;;2.53;;
69081;SDS011;68928;51.986;5.760;2023-04-01T07:08:28;4.25;;;2.00;;
69081;SDS011;68928;51.986;5.760;2023-04-01T07:16:56;2.28;;;2.03;;
69081;SDS011;68928;51.986;5.760;2023-04-01T07:19:32;3.63;;;3.25;;
69081;SDS011;68928;51.986;5.760;2023-04-01T07:22:09;2.10;;;1.90;;
69081;SDS011;68928;51.986;5.760;2023-04-01T07:24:51;2.42;;;2.22;;
69081;SDS011;68928;51.986;5.760;2023-04-01T07:27:18;2.15;;;1.95;;
69081;SDS011;68928;51.986;5.760;2023-04-01T07:29:44;2.40;;;2.17;;
69081;SDS011;68928;51.986;5.760;2023-04-01T07:35:09;2.55;;;2.00;;
69081;SDS011;68928;51.986;5.760;2023-04-01T07:42:49;2.30;;;1.90;;
69081;SDS011;68928;51.986;5.760;2023-04-01T07:45:34;3.55;;;2.10;;
69081;SDS011;68928;51.986;5.760;2023-04-01T07:53:32;2.33;;;2.03;;
69081;SDS011;68928;51.986;5.760;2023-04-01T07:56:30;4.30;;;3.72;;
69081;SDS011;68928;51.986;5.760;2023-04-01T07:59:09;5.22;;;2.45;;
69081;SDS011;68928;51.986;5.760;2023-04-01T08:07:32;1.63;;;1.48;;
69081;SDS011;68928;51.986;5.760;2023-04-01T08:10:19;2.17;;;1.73;;
69081;SDS011;68928;51.986;5.760;2023-04-01T08:15:53;3.72;;;3.42;;
69081;SDS011;68928;51.986;5.760;2023-04-01T08:21:05;1.38;;;1.20;;
69081;SDS011;68928;51.986;5.760;2023-04-01T08:23:44;1.50;;;1.40;;
69081;SDS011;68928;51.986;5.760;2023-04-01T08:28:55;1.80;;;1.60;;
69081;SDS011;68928;51.986;5.760;2023-04-01T08:31:36;2.05;;;1.50;;
69081;SDS011;68928;51.986;5.760;2023-04-01T08:34:16;2.03;;;1.70;;
69081;SDS011;68928;51.986;5.760;2023-04-01T08:36:46;1.90;;;1.80;;
69081;SDS011;68928;51.986;5.760;2023-04-01T08:39:29;2.00;;;1.70;;
69081;SDS011;68928;51.986;5.760;2023-04-01T08:48:00;1.50;;;1.40;;
69081;SDS011;68928;51.986;5.760;2023-04-01T08:53:50;2.15;;;1.60;;
69081;SDS011;68928;51.986;5.760;2023-04-01T08:56:36;1.45;;;1.35;;
69081;SDS011;68928;51.986;5.760;2023-04-01T09:08:14;5.68;;;4.88;;
69081;SDS011;68928;51.986;5.760;2023-04-01T09:13:49;6.40;;;4.15;;
69081;SDS011;68928;51.986;5.760;2023-04-01T09:19:24;3.63;;;3.10;;
69081;SDS011;68928;51.986;5.760;2023-04-01T09:22:09;3.53;;;3.13;;
69081;SDS011;68928;51.986;5.760;2023-04-01T09:33:09;4.25;;;3.85;;
69081;SDS011;68928;51.986;5.760;2023-04-01T09:35:49;4.53;;;3.80;;
69081;SDS011;68928;51.986;5.760;2023-04-01T09:41:39;8.00;;;6.00;;
69081;SDS011;68928;51.986;5.760;2023-04-01T09:47:13;4.22;;;3.75;;
69081;SDS011;68928;51.986;5.760;2023-04-01T09:52:34;3.92;;;3.58;;
69081;SDS011;68928;51.986;5.760;2023-04-01T10:01:15;6.88;;;5.38;;
69081;SDS011;68928;51.986;5.760;2023-04-01T10:07:07;11.18;;;6.57;;
69081;SDS011;68928;51.986;5.760;2023-04-01T10:12:40;6.72;;;4.90;;
69081;SDS011;68928;51.986;5.760;2023-04-01T10:27:00;11.50;;;8.32;;
69081;SDS011;68928;51.986;5.760;2023-04-01T11:22:13;2.72;;;2.53;;
69081;SDS011;68928;51.986;5.760;2023-04-01T11:36:52;1.77;;;1.67;;
69081;SDS011;68928;51.986;5.760;2023-04-01T11:42:13;2.05;;;1.85;;
69081;SDS011;68928;51.986;5.760;2023-04-01T11:45:01;3.10;;;2.00;;
69081;SDS011;68928;51.986;5.760;2023-04-01T12:05:07;1.40;;;1.30;;
69081;SDS011;68928;51.986;5.760;2023-04-01T12:10:33;1.35;;;1.30;;
69081;SDS011;68928;51.986;5.760;2023-04-01T12:13:13;1.25;;;1.15;;
69081;SDS011;68928;51.986;5.760;2023-04-01T12:29:53;4.07;;;2.78;;
69081;SDS011;68928;51.986;5.760;2023-04-01T12:32:49;20.58;;;9.20;;
69081;SDS011;68928;51.986;5.760;2023-04-01T12:35:41;29.92;;;11.85;;
69081;SDS011;68928;51.986;5.760;2023-04-01T12:46:44;2.65;;;2.20;;
69081;SDS011;68928;51.986;5.760;2023-04-01T12:52:05;2.53;;;2.33;;
69081;SDS011;68928;51.986;5.760;2023-04-01T13:00:30;2.33;;;2.13;;
69081;SDS011;68928;51.986;5.760;2023-04-01T13:08:34;3.00;;;2.70;;
69081;SDS011;68928;51.986;5.760;2023-04-01T13:13:48;3.50;;;3.20;;
69081;SDS011;68928;51.986;5.760;2023-04-01T13:16:38;9.40;;;6.57;;
69081;SDS011;68928;51.986;5.760;2023-04-01T13:19:17;25.60;;;22.98;;
69081;SDS011;68928;51.986;5.760;2023-04-01T13:25:01;14.40;;;12.93;;
69081;SDS011;68928;51.986;5.760;2023-04-01T13:27:35;6.43;;;5.82;;
69081;SDS011;68928;51.986;5.760;2023-04-01T13:33:01;3.00;;;2.80;;
69081;SDS011;68928;51.986;5.760;2023-04-01T13:36:27;3.00;;;2.70;;
69081;SDS011;68928;51.986;5.760;2023-04-01T13:38:38;3.35;;;2.50;;
69081;SDS011;68928;51.986;5.760;2023-04-01T13:41:33;3.30;;;2.38;;
69081;SDS011;68928;51.986;5.760;2023-04-01T13:44:21;2.35;;;2.13;;
69081;SDS011;68928;51.986;5.760;2023-04-01T13:53:25;3.50;;;2.00;;
69081;SDS011;68928;51.986;5.760;2023-04-01T13:59:03;3.88;;;2.10;;
69081;SDS011;68928;51.986;5.760;2023-04-01T14:13:50;2.38;;;1.88;;
69081;SDS011;68928;51.986;5.760;2023-04-01T14:33:10;4.22;;;2.10;;
69081;SDS011;68928;51.986;5.760;2023-04-01T14:46:50;3.80;;;2.20;;
69081;SDS011;68928;51.986;5.760;2023-04-01T14:49:46;2.72;;;2.50;;
69081;SDS011;68928;51.986;5.760;2023-04-01T14:52:23;2.45;;;2.25;;
69081;SDS011;68928;51.986;5.760;2023-04-01T14:54:54;3.70;;;2.30;;
69081;SDS011;68928;51.986;5.760;2023-04-01T14:57:25;2.60;;;2.40;;
69081;SDS011;68928;51.986;5.760;2023-04-01T14:59:59;3.65;;;2.00;;
69081;SDS011;68928;51.986;5.760;2023-04-01T15:21:50;2.25;;;1.67;;
69081;SDS011;68928;51.986;5.760;2023-04-01T15:24:24;1.40;;;1.30;;
69081;SDS011;68928;51.986;5.760;2023-04-01T15:27:03;1.25;;;1.10;;
69081;SDS011;68928;51.986;5.760;2023-04-01T15:35:14;4.53;;;1.75;;
69081;SDS011;68928;51.986;5.760;2023-04-01T15:40:40;2.50;;;2.30;;
69081;SDS011;68928;51.986;5.760;2023-04-01T15:46:28;2.10;;;1.90;;
69081;SDS011;68928;51.986;5.760;2023-04-01T15:49:28;2.33;;;2.10;;
69081;SDS011;68928;51.986;5.760;2023-04-01T15:52:19;2.00;;;1.90;;
69081;SDS011;68928;51.986;5.760;2023-04-01T15:55:13;2.22;;;2.00;;
69081;SDS011;68928;51.986;5.760;2023-04-01T16:00:26;1.73;;;1.63;;
69081;SDS011;68928;51.986;5.760;2023-04-01T16:03:09;1.65;;;1.55;;
69081;SDS011;68928;51.986;5.760;2023-04-01T16:21:38;1.98;;;1.88;;
69081;SDS011;68928;51.986;5.760;2023-04-01T16:24:30;1.85;;;1.75;;
69081;SDS011;68928;51.986;5.760;2023-04-01T16:29:54;2.58;;;2.38;;
69081;SDS011;68928;51.986;5.760;2023-04-01T16:32:51;2.05;;;1.85;;
69081;SDS011;68928;51.986;5.760;2023-04-01T16:43:46;5.75;;;2.30;;
69081;SDS011;68928;51.986;5.760;2023-04-01T16:46:26;1.90;;;1.80;;
69081;SDS011;68928;51.986;5.760;2023-04-01T16:57:31;2.42;;;1.90;;
69081;SDS011;68928;51.986;5.760;2023-04-01T17:00:27;6.25;;;2.00;;
69081;SDS011;68928;51.986;5.760;2023-04-01T17:06:18;1.88;;;1.77;;
69081;SDS011;68928;51.986;5.760;2023-04-01T17:14:12;2.70;;;2.40;;
69081;SDS011;68928;51.986;5.760;2023-04-01T17:17:18;2.33;;;2.13;;
69081;SDS011;68928;51.986;5.760;2023-04-01T17:20:05;3.13;;;2.38;;
69081;SDS011;68928;51.986;5.760;2023-04-01T17:22:54;2.60;;;2.25;;
69081;SDS011;68928;51.986;5.760;2023-04-01T17:31:14;2.40;;;2.20;;
69081;SDS011;68928;51.986;5.760;2023-04-01T17:39:05;3.83;;;2.35;;
69081;SDS011;68928;51.986;5.760;2023-04-01T17:41:58;2.30;;;2.10;;
69081;SDS011;68928;51.986;5.760;2023-04-01T17:44:46;2.80;;;2.60;;
69081;SDS011;68928;51.986;5.760;2023-04-01T17:47:36;3.03;;;2.58;;
69081;SDS011;68928;51.986;5.760;2023-04-01T17:52:44;2.97;;;2.78;;
69081;SDS011;68928;51.986;5.760;2023-04-01T17:55:24;2.75;;;2.55;;
69081;SDS011;68928;51.986;5.760;2023-04-01T17:57:54;2.67;;;2.47;;
69081;SDS011;68928;51.986;5.760;2023-04-01T18:00:28;2.90;;;2.25;;
69081;SDS011;68928;51.986;5.760;2023-04-01T18:03:09;2.38;;;2.17;;
69081;SDS011;68928;51.986;5.760;2023-04-01T18:22:45;3.17;;;2.88;;
69081;SDS011;68928;51.986;5.760;2023-04-01T18:30:57;3.08;;;2.42;;
69081;SDS011;68928;51.986;5.760;2023-04-01T18:36:16;2.85;;;2.03;;
69081;SDS011;68928;51.986;5.760;2023-04-01T18:38:53;2.67;;;2.47;;
69081;SDS011;68928;51.986;5.760;2023-04-01T18:41:30;2.38;;;2.20;;
69081;SDS011;68928;51.986;5.760;2023-04-01T18:47:07;3.15;;;2.85;;
69081;SDS011;68928;51.986;5.760;2023-04-01T18:50:14;2.63;;;2.42;;
69081;SDS011;68928;51.986;5.760;2023-04-01T18:52:45;5.45;;;2.63;;
69081;SDS011;68928;51.986;5.760;2023-04-01T18:55:22;2.90;;;2.70;;
69081;SDS011;68928;51.986;5.760;2023-04-01T18:57:55;2.80;;;2.60;;
69081;SDS011;68928;51.986;5.760;2023-04-01T19:00:39;3.13;;;2.92;;
69081;SDS011;68928;51.986;5.760;2023-04-01T19:05:51;2.92;;;2.70;;
69081;SDS011;68928;51.986;5.760;2023-04-01T19:08:30;2.90;;;2.63;;
69081;SDS011;68928;51.986;5.760;2023-04-01T19:19:21;2.67;;;2.47;;
69081;SDS011;68928;51.986;5.760;2023-04-01T19:27:46;2.95;;;2.75;;
69081;SDS011;68928;51.986;5.760;2023-04-01T19:33:28;2.70;;;2.50;;
69081;SDS011;68928;51.986;5.760;2023-04-01T19:39:10;2.08;;;1.98;;
69081;SDS011;68928;51.986;5.760;2023-04-01T19:45:14;3.85;;;2.22;;
69081;SDS011;68928;51.986;5.760;2023-04-01T19:48:05;2.10;;;2.00;;
69081;SDS011;68928;51.986;5.760;2023-04-01T19:51:09;2.95;;;2.67;;
69081;SDS011;68928;51.986;5.760;2023-04-01T19:53:43;4.30;;;2.28;;
69081;SDS011;68928;51.986;5.760;2023-04-01T19:56:28;2.53;;;2.00;;
69081;SDS011;68928;51.986;5.760;2023-04-01T19:59:29;2.30;;;2.10;;
69081;SDS011;68928;51.986;5.760;2023-04-01T20:07:09;3.03;;;2.65;;
69081;SDS011;68928;51.986;5.760;2023-04-01T20:09:58;2.53;;;2.33;;
69081;SDS011;68928;51.986;5.760;2023-04-01T20:12:41;2.63;;;2.42;;
69081;SDS011;68928;51.986;5.760;2023-04-01T20:15:20;3.00;;;2.80;;
69081;SDS011;68928;51.986;5.760;2023-04-01T20:17:59;3.97;;;2.90;;
69081;SDS011;68928;51.986;5.760;2023-04-01T20:20:28;3.22;;;3.00;;
69081;SDS011;68928;51.986;5.760;2023-04-01T20:25:27;3.42;;;3.20;;
69081;SDS011;68928;51.986;5.760;2023-04-01T20:44:44;3.33;;;3.03;;
69081;SDS011;68928;51.986;5.760;2023-04-01T20:50:19;3.67;;;3.38;;
69081;SDS011;68928;51.986;5.760;2023-04-01T20:53:05;3.75;;;3.45;;
69081;SDS011;68928;51.986;5.760;2023-04-01T21:09:41;5.18;;;4.68;;
69081;SDS011;68928;51.986;5.760;2023-04-01T21:12:27;4.38;;;3.97;;
69081;SDS011;68928;51.986;5.760;2023-04-01T21:17:51;5.07;;;4.57;;
69081;SDS011;68928;51.986;5.760;2023-04-01T21:34:42;4.38;;;3.97;;
69081;SDS011;68928;51.986;5.760;2023-04-01T21:59:59;4.88;;;4.47;;
69081;SDS011;68928;51.986;5.760;2023-04-01T22:10:58;4.25;;;3.95;;
69081;SDS011;68928;51.986;5.760;2023-04-01T22:13:31;4.30;;;3.90;;
69081;SDS011;68928;51.986;5.760;2023-04-01T22:16:12;4.07;;;3.63;;
69081;SDS011;68928;51.986;5.760;2023-04-01T22:29:42;4.15;;;3.63;;
69081;SDS011;68928;51.986;5.760;2023-04-01T22:45:48;3.65;;;3.35;;
69081;SDS011;68928;51.986;5.760;2023-04-01T22:48:44;3.17;;;2.95;;
69081;SDS011;68928;51.986;5.760;2023-04-01T22:51:15;3.70;;;3.38;;
69081;SDS011;68928;51.986;5.760;2023-04-01T22:56:35;3.92;;;3.58;;
69081;SDS011;68928;51.986;5.760;2023-04-01T22:59:07;4.30;;;3.92;;
69081;SDS011;68928;51.986;5.760;2023-04-01T23:01:48;5.07;;;4.03;;
69081;SDS011;68928;51.986;5.760;2023-04-01T23:04:24;4.95;;;4.45;;
69081;SDS011;68928;51.986;5.760;2023-04-01T23:06:57;5.10;;;4.70;;
69081;SDS011;68928;51.986;5.760;2023-04-01T23:09:26;5.25;;;4.75;;
69081;SDS011;68928;51.986;5.760;2023-04-01T23:11:58;6.07;;;4.72;;
69081;SDS011;68928;51.986;5.760;2023-04-01T23:14:43;5.45;;;4.95;;
69081;SDS011;68928;51.986;5.760;2023-04-01T23:20:10;7.72;;;5.25;;
69081;SDS011;68928;51.986;5.760;2023-04-01T23:23:07;13.88;;;5.20;;
69081;SDS011;68928;51.986;5.760;2023-04-01T23:38:31;6.53;;;5.68;;
69081;SDS011;68928;51.986;5.760;2023-04-01T23:40:59;10.27;;;5.95;;
69081;SDS011;68928;51.986;5.760;2023-04-01T23:43:38;9.15;;;6.88;;
69081;SDS011;68928;51.986;5.760;2023-04-01T23:46:06;7.93;;;6.50;;
69081;SDS011;68928;51.986;5.760;2023-04-01T23:48:34;7.38;;;6.45;;
69081;SDS011;68928;51.986;5.760;2023-04-01T23:53:46;7.45;;;5.75;;
69081;SDS011;68928;51.986;5.760;2023-04-01T23:56:20;6.53;;;5.47;;
69081;SDS011;68928;51.986;5.760;2023-04-01T23:58:47;7.13;;;4.50;;
